Time;durP1;ratioP1;P1;durP2;ratioP2;P2;SDS_P1;SDS_P2;PMS_P1;PMS_P2;Temp;Humidity;BMP_temperature;BMP_pressure;BME280_temperature;BME280_humidity;BME280_pressure;Samples;Min_cycle;Max_cycle;Signal;HPM_P1;HPM_P2
2021/03/08 00:00:43;;;;;;;46.77;33.20;;;1.60;1.40;;;2.92;100.00;95503.20;643836;221;23470;-74
2021/03/08 00:03:12;;;;;;;48.47;31.00;;;1.60;1.40;;;2.90;100.00;95505.42;641559;221;29831;-75
2021/03/08 00:05:41;;;;;;;42.13;29.80;;;1.70;1.40;;;2.91;100.00;95508.16;641747;221;24523;-75
2021/03/08 00:08:10;;;;;;;39.10;27.80;;;1.70;1.40;;;2.90;100.00;95507.30;640414;220;24492;-75
2021/03/08 00:10:39;;;;;;;41.13;30.40;;;1.70;1.40;;;2.93;100.00;95509.52;641402;221;30892;-75
2021/03/08 00:13:08;;;;;;;35.60;27.53;;;1.60;1.40;;;2.81;100.00;95504.71;640409;221;24504;-75
2021/03/08 00:15:37;;;;;;;39.97;26.87;;;1.50;1.40;;;2.71;100.00;95495.11;641422;221;24492;-75
2021/03/08 00:18:06;;;;;;;37.53;27.23;;;1.40;1.40;;;2.58;100.00;95491.06;641229;220;24519;-74
2021/03/08 00:20:35;;;;;;;39.57;27.50;;;1.30;1.40;;;2.42;100.00;95488.87;641195;221;24505;-75
2021/03/08 00:23:04;;;;;;;36.30;25.70;;;1.10;1.40;;;2.35;100.00;95493.53;641099;221;27724;-75
2021/03/08 00:25:33;;;;;;;42.20;28.67;;;1.00;1.40;;;2.19;100.00;95495.89;633952;221;24546;-76
2021/03/08 00:28:02;;;;;;;37.27;26.77;;;0.80;1.40;;;1.98;100.00;95495.73;629241;224;26914;-75
2021/03/08 00:30:31;;;;;;;33.30;26.73;;;0.80;1.40;;;1.85;100.00;95497.05;628675;225;24540;-75
2021/03/08 00:33:01;;;;;;;52.03;36.42;;;0.70;1.40;;;1.89;100.00;95498.73;622721;224;31943;-75
2021/03/08 00:35:51;;;;;;;54.45;39.65;;;0.90;1.40;;;1.95;100.00;95506.50;648660;212;31642;-75
2021/03/08 00:38:20;;;;;;;43.67;31.20;;;0.90;1.40;;;1.99;100.00;95509.06;642416;221;24277;-75
2021/03/08 00:40:51;;;;;;;55.30;39.80;;;1.00;1.40;;;2.02;100.00;95507.66;635889;221;31885;-76
2021/03/08 00:43:18;;;;;;;45.03;33.67;;;0.90;1.40;;;1.92;100.00;95497.70;641163;221;23491;-75
2021/03/08 00:48:24;;;;;;;52.35;37.83;;;0.60;1.40;;;1.70;100.00;95504.81;647580;216;31661;-75
2021/03/08 00:50:53;;;;;;;40.60;31.53;;;0.50;1.40;;;1.72;100.00;95504.27;641016;221;23469;-75
2021/03/08 00:53:23;;;;;;;40.47;29.30;;;0.60;1.40;;;1.73;100.00;95501.34;641476;221;24650;-75
2021/03/08 00:55:52;;;;;;;39.47;28.30;;;0.70;1.40;;;1.75;100.00;95498.05;642178;221;24493;-75
2021/03/08 00:58:21;;;;;;;37.87;26.70;;;0.60;1.40;;;1.56;100.00;95487.41;639501;221;24540;-75
2021/03/08 01:00:50;;;;;;;37.00;26.87;;;0.50;1.40;;;1.36;100.00;95493.47;641270;220;24757;-75
2021/03/08 01:03:19;;;;;;;34.10;26.13;;;0.20;1.40;;;1.22;100.00;95493.23;641631;221;25861;-75
2021/03/08 01:05:48;;;;;;;40.50;28.00;;;0.10;1.40;;;1.13;100.00;95496.14;641028;220;24495;-75
2021/03/08 01:08:17;;;;;;;38.63;26.57;;;0.00;1.40;;;1.14;100.00;95493.32;638804;220;24497;-75
2021/03/08 01:13:20;;;;;;;47.35;33.90;;;0.00;1.40;;;0.90;100.00;95501.39;646300;212;31555;-75
2021/03/08 01:15:52;;;;;;;34.00;27.80;;;0.00;1.40;;;0.87;100.00;95496.65;642331;220;23510;-75
2021/03/08 01:18:21;;;;;;;47.08;34.28;;;0.00;1.40;;;1.04;100.00;95503.13;647985;216;31543;-75
2021/03/08 01:20:50;;;;;;;36.90;28.27;;;0.00;1.40;;;1.02;100.00;95488.95;655586;216;28759;-74
2021/03/08 01:23:19;;;;;;;40.20;28.33;;;0.00;1.40;;;0.95;100.00;95485.33;668831;211;24402;-75
2021/03/08 01:25:48;;;;;;;34.20;26.43;;;0.00;1.40;;;0.90;100.00;95485.02;670308;211;24446;-74
2021/03/08 01:28:17;;;;;;;34.37;27.77;;;-0.10;1.40;;;1.00;100.00;95483.43;670135;211;24505;-75
2021/03/08 01:30:46;;;;;;;34.33;26.60;;;0.00;1.40;;;1.03;100.00;95481.98;669082;211;24463;-75
2021/03/08 01:35:54;;;;;;;47.62;34.22;;;0.10;1.40;;;0.97;100.00;95461.23;646138;212;32112;-75
2021/03/08 01:38:23;;;;;;;43.30;29.20;;;0.10;1.40;;;0.95;100.00;95468.40;641809;220;23517;-75
2021/03/08 01:40:52;;;;;;;36.27;26.93;;;0.00;1.40;;;0.92;100.00;95475.21;651133;218;24473;-75
2021/03/08 01:43:21;;;;;;;47.13;34.13;;;0.00;1.40;;;0.93;100.00;95474.74;634911;219;31733;-75
2021/03/08 01:45:50;;;;;;;40.57;31.20;;;0.10;1.40;;;0.98;100.00;95473.95;669713;211;23454;-75
2021/03/08 01:48:19;;;;;;;36.77;27.90;;;0.10;1.40;;;1.06;100.00;95471.66;669012;211;24459;-75
2021/03/08 01:50:48;;;;;;;45.75;35.75;;;0.20;1.40;;;1.11;100.00;95469.18;664901;211;31407;-75
2021/03/08 01:53:17;;;;;;;38.53;29.63;;;0.20;1.40;;;1.18;100.00;95467.81;670509;211;23439;-75
2021/03/08 01:55:47;;;;;;;40.03;30.40;;;0.30;1.40;;;1.26;100.00;95464.72;670634;211;24399;-76
2021/03/08 01:58:16;;;;;;;37.77;27.47;;;0.30;1.40;;;1.39;100.00;95456.48;668894;211;24405;-75
2021/03/08 02:00:45;;;;;;;38.27;29.67;;;0.40;1.40;;;1.44;100.00;95453.30;669487;211;24505;-75
2021/03/08 02:03:14;;;;;;;60.15;39.60;;;0.40;1.40;;;1.56;100.00;95448.56;662580;211;31459;-76
2021/03/08 02:05:43;;;;;;;45.07;30.93;;;0.40;1.40;;;1.61;100.00;95440.78;669589;211;23384;-75
2021/03/08 02:08:12;;;;;;;38.73;27.00;;;0.50;1.40;;;1.50;100.00;95443.89;642417;220;24500;-75
2021/03/08 02:10:41;;;;;;;43.27;29.00;;;0.40;1.40;;;1.49;100.00;95443.30;669067;211;24409;-75
2021/03/08 02:13:53;;;;;;;37.60;27.10;;;0.40;1.40;;;1.45;100.00;95438.83;667469;211;24444;-75
2021/03/08 02:20:11;;;;;;;56.53;42.17;;;0.60;1.40;;;1.60;100.00;95436.11;647125;212;31568;-75
2021/03/08 02:22:55;;;;;;;47.37;34.33;;;0.60;1.40;;;1.45;100.00;95435.63;642988;220;23464;-75
2021/03/08 02:25:34;;;;;;;53.35;38.78;;;0.50;1.40;;;1.43;100.00;95441.37;631457;220;32047;-75
2021/03/08 02:28:26;;;;;;;39.43;31.50;;;0.50;1.40;;;1.30;100.00;95438.11;642628;221;23766;-77
2021/03/08 02:31:05;;;;;;;44.75;34.97;;;0.50;1.40;;;1.26;100.00;95433.59;645536;212;32145;-75
2021/03/08 02:35:51;;;;;;;;;;;0.30;1.40;;;1.10;100.00;95424.69;654349;216;24745;-75
2021/03/08 02:38:19;;;;;;;;;;;0.20;1.40;;;1.03;100.00;95424.05;643821;221;25503;-75
2021/03/08 02:40:49;;;;;;;;;;;0.10;1.40;;;0.99;100.00;95430.24;642188;220;25004;-75
2021/03/08 02:43:18;;;;;;;;;;;0.10;1.40;;;0.95;100.00;95423.46;643782;220;24945;-75
2021/03/08 02:45:47;;;;;;;;;;;0.00;1.40;;;0.84;100.00;95428.45;669492;211;25552;-75
2021/03/08 02:48:15;;;;;;;;;;;-0.20;1.40;;;0.72;100.00;95421.41;643192;220;24973;-74
2021/03/08 02:50:44;;;;;;;;;;;-0.40;1.40;;;0.60;100.00;95420.64;669692;211;25577;-75
2021/03/08 02:53:12;;;;;;;;;;;-0.60;1.40;;;0.46;100.00;95424.65;670878;211;24856;-75
2021/03/08 02:55:42;;;;;;;;;;;-0.70;1.40;;;0.42;100.00;95424.91;671727;211;24911;-74
2021/03/08 02:58:10;;;;;;;;;;;-0.80;1.40;;;0.28;100.00;95429.59;671702;211;24846;-74
2021/03/08 03:00:39;;;;;;;;;;;-0.90;1.40;;;0.25;100.00;95434.52;655381;216;24900;-74
2021/03/08 03:03:07;;;;;;;;;;;-0.80;1.40;;;0.18;100.00;95436.17;653502;216;24970;-74
2021/03/08 03:05:36;;;;;;;;;;;-0.80;1.40;;;0.24;100.00;95437.32;647384;220;24830;-75
2021/03/08 03:08:05;;;;;;;;;;;-0.80;1.40;;;0.31;100.00;95435.63;649725;220;24939;-74
2021/03/08 03:10:33;;;;;;;;;;;-0.80;1.40;;;0.37;100.00;95433.27;643588;221;24925;-74
2021/03/08 03:13:03;;;;;;;;;;;-0.70;1.40;;;0.27;100.00;95431.14;670633;211;25510;-75
2021/03/08 03:15:31;;;;;;;;;;;-0.70;1.40;;;0.35;100.00;95432.17;669780;211;24876;-75
2021/03/08 03:18:00;;;;;;;;;;;-0.70;1.40;;;0.40;100.00;95432.97;654393;216;25705;-75
2021/03/08 03:20:29;;;;;;;;;;;-0.70;1.40;;;0.49;100.00;95439.31;670392;211;24885;-74
2021/03/08 03:22:57;;;;;;;;;;;-0.60;1.40;;;0.54;100.00;95433.05;669945;211;24866;-74
2021/03/08 03:25:26;;;;;;;;;;;-0.70;1.40;;;0.47;100.00;95432.12;667890;211;24892;-74
2021/03/08 03:27:54;;;;;;;;;;;-0.70;1.40;;;0.47;100.00;95438.70;661415;216;25084;-75
2021/03/08 03:30:23;;;;;;;;;;;-0.60;1.40;;;0.61;100.00;95432.23;661493;216;25472;-74
2021/03/08 03:32:52;;;;;;;;;;;-0.40;1.40;;;0.62;100.00;95436.88;660355;216;24893;-74
2021/03/08 03:35:51;;;;;;;50.88;35.90;;;-0.40;1.40;;;0.67;100.00;95438.41;645668;216;31850;-74
2021/03/08 03:38:20;;;;;;;46.53;32.10;;;-0.40;1.40;;;0.55;100.00;95443.89;641354;221;23477;-74
2021/03/08 03:40:49;;;;;;;54.78;38.90;;;-0.50;1.40;;;0.43;100.00;95441.94;635265;220;31822;-74
2021/03/08 03:43:18;;;;;;;41.20;28.70;;;-0.60;1.40;;;0.40;100.00;95448.80;640973;221;23469;-74
2021/03/08 03:45:47;;;;;;;39.00;30.20;;;-0.70;1.40;;;0.47;100.00;95456.72;640025;220;29834;-74
2021/03/08 03:48:17;;;;;;;38.43;28.40;;;-0.70;1.40;;;0.59;100.00;95451.67;637869;221;26089;-74
2021/03/08 03:50:46;;;;;;;43.87;32.80;;;-0.50;1.40;;;0.59;100.00;95451.51;633159;221;24504;-74
2021/03/08 03:53:15;;;;;;;47.70;36.65;;;-0.50;1.40;;;0.63;100.00;95451.99;637220;220;31751;-74
2021/03/08 03:55:44;;;;;;;48.27;32.93;;;-0.50;1.40;;;0.58;100.00;95454.80;668330;211;23470;-74
2021/03/08 04:00:55;;;;;;;46.47;36.53;;;-0.70;1.40;;;0.43;100.00;95451.27;648144;216;42401;-74
2021/03/08 04:03:24;;;;;;;45.67;31.80;;;-0.70;1.40;;;0.48;100.00;95447.93;641418;220;23480;-74
2021/03/08 04:05:54;;;;;;;48.08;36.60;;;-0.80;1.40;;;0.39;100.00;95449.02;634178;220;42788;-74
2021/03/08 04:08:23;;;;;;;41.93;30.43;;;-1.00;1.40;;;0.24;100.00;95452.56;640731;221;23472;-74
2021/03/08 04:10:53;;;;;;;35.83;28.63;;;-1.10;1.40;;;0.13;100.00;95455.38;641001;221;24499;-74
2021/03/08 04:13:22;;;;;;;37.70;28.57;;;-1.20;1.40;;;0.04;100.00;95455.31;640819;221;25039;-74
2021/03/08 04:15:51;;;;;;;44.05;34.38;;;-1.10;1.40;;;0.08;100.00;95462.00;634405;220;31789;-74
2021/03/08 04:18:20;;;;;;;39.77;29.33;;;-1.10;1.40;;;-0.01;100.00;95467.45;640231;221;23467;-74
2021/03/08 04:20:49;;;;;;;38.83;27.50;;;-1.30;1.40;;;-0.20;100.00;95475.05;640931;220;24524;-74
2021/03/08 04:23:18;;;;;;;34.00;24.60;;;-1.40;1.40;;;-0.21;100.00;95471.46;640613;221;25095;-74
2021/03/08 04:25:47;;;;;;;39.67;31.80;;;-1.30;1.40;;;-0.30;100.00;95479.27;635181;220;32385;-74
2021/03/08 04:28:16;;;;;;;30.73;26.27;;;-1.30;1.40;;;-0.37;100.00;95480.73;640670;221;23470;-74
2021/03/08 04:30:45;;;;;;;34.33;26.00;;;-1.30;1.40;;;-0.39;100.00;95479.70;641221;221;24513;-74
2021/03/08 04:35:51;;;;;;;41.53;32.05;;;-1.30;1.40;;;-0.39;100.00;95476.35;645756;216;31563;-74
2021/03/08 04:38:20;;;;;;;36.43;27.30;;;-1.50;1.40;;;-0.41;100.00;95474.77;642150;220;23494;-73
2021/03/08 04:40:49;;;;;;;36.63;26.63;;;-1.60;1.40;;;-0.58;100.00;95471.55;642318;221;24557;-74
2021/03/08 04:43:18;;;;;;;43.50;33.08;;;-1.80;1.40;;;-0.61;100.00;95477.72;635733;221;31751;-73
2021/03/08 04:45:47;;;;;;;40.80;30.90;;;-1.90;1.40;;;-0.76;100.00;95475.77;640696;221;23785;-74
2021/03/08 04:48:16;;;;;;;31.47;27.70;;;-2.00;1.40;;;-0.92;100.00;95475.26;641092;221;27749;-74
2021/03/08 04:50:45;;;;;;;44.78;34.63;;;-2.10;1.40;;;-1.01;100.00;95476.67;633883;221;31790;-73
2021/03/08 04:53:14;;;;;;;41.23;31.17;;;-2.20;1.40;;;-1.01;100.00;95477.95;639866;220;23473;-73
2021/03/08 04:55:43;;;;;;;45.83;36.80;;;-2.20;1.40;;;-0.97;100.00;95473.69;634772;221;31785;-74
2021/03/08 04:58:13;;;;;;;45.73;32.67;;;-2.30;1.40;;;-1.10;100.00;95482.69;640433;221;23466;-74
2021/03/08 05:00:43;;;;;;;50.65;39.38;;;-2.40;1.40;;;-1.13;100.00;95484.05;649376;216;31766;-73
2021/03/08 05:03:13;;;;;;;40.67;30.10;;;-2.40;1.40;;;-1.27;100.00;95482.23;654832;215;23441;-73
2021/03/08 05:05:41;;;;;;;49.28;38.72;;;-2.40;1.40;;;-1.29;100.00;95482.08;661114;211;31450;-73
2021/03/08 05:08:11;;;;;;;55.67;41.10;;;-2.50;1.40;;;-1.17;100.00;95486.87;664344;211;31411;-73
2021/03/08 05:10:40;;;;;;;44.00;32.80;;;-2.40;1.40;;;-1.19;100.00;95487.88;655671;216;27704;-73
2021/03/08 05:13:09;;;;;;;45.03;32.27;;;-2.50;1.40;;;-1.18;100.00;95492.26;655438;216;24457;-73
2021/03/08 05:15:38;;;;;;;53.80;40.03;;;-2.40;1.40;;;-1.23;100.00;95491.30;662605;211;32161;-74
2021/03/08 05:18:07;;;;;;;40.90;32.90;;;-2.40;1.40;;;-1.22;100.00;95490.53;669152;211;23407;-73
2021/03/08 05:20:37;;;;;;;56.67;42.08;;;-2.30;1.40;;;-1.15;100.00;95486.39;642309;220;31957;-73
2021/03/08 05:23:05;;;;;;;42.33;32.13;;;-2.20;1.40;;;-1.10;100.00;95488.14;668548;211;23438;-74
2021/03/08 05:25:34;;;;;;;50.10;32.60;;;-2.20;1.40;;;-1.09;100.00;95490.17;663135;211;24480;-74
2021/03/08 05:28:04;;;;;;;58.78;41.90;;;-2.20;1.40;;;-1.08;100.00;95483.80;636964;220;31795;-73
2021/03/08 05:30:33;;;;;;;50.20;33.17;;;-2.10;1.40;;;-1.08;100.00;95487.02;642339;220;23702;-74
2021/03/08 05:35:52;;;;;;;62.80;45.08;;;-2.10;1.40;;;-1.01;100.00;95480.92;646058;212;31621;-74
2021/03/08 05:38:21;;;;;;;43.70;34.33;;;-2.20;1.40;;;-1.10;100.00;95485.46;639842;221;23494;-74
2021/03/08 05:40:57;;;;;;;53.53;40.58;;;-2.20;1.40;;;-1.13;100.00;95491.05;636207;221;31995;-74
2021/03/08 05:43:26;;;;;;;46.83;32.40;;;-2.10;1.40;;;-1.13;100.00;95489.47;640416;220;23486;-74
2021/03/08 05:45:58;;;;;;;53.42;41.60;;;-2.20;1.40;;;-1.11;100.00;95490.02;649573;215;31904;-74
2021/03/08 05:48:36;;;;;;;61.78;44.80;;;-2.20;1.40;;;-1.04;100.00;95493.27;664472;211;31484;-74
2021/03/08 05:51:22;;;;;;;63.85;46.35;;;-2.10;1.40;;;-1.09;100.00;95491.61;647956;215;31694;-73
2021/03/08 05:56:40;;;;;;;57.00;42.15;;;-2.20;1.40;;;-1.16;100.00;95494.48;646051;216;31614;-74
2021/03/08 05:59:41;;;;;;;46.87;34.13;;;-2.20;1.40;;;-1.18;100.00;95507.42;641553;221;23471;-72
2021/03/08 06:02:52;;;;;;;64.18;47.20;;;-2.20;1.40;;;-1.04;100.00;95512.58;646584;216;31541;-74
2021/03/08 06:05:38;;;;;;;59.22;45.80;;;-2.10;1.40;;;-1.03;100.00;95516.53;646788;216;42347;-74
2021/03/08 06:08:42;;;;;;;50.90;35.87;;;-2.20;1.40;;;-1.08;100.00;95518.87;641398;220;23503;-74
2021/03/08 06:11:21;;;;;;;61.60;44.45;;;-2.20;1.40;;;-1.15;100.00;95526.81;647644;216;31648;-74
2021/03/08 06:13:58;;;;;;;41.50;33.17;;;-2.20;1.40;;;-1.19;100.00;95525.33;640329;221;23527;-74
2021/03/08 06:16:35;;;;;;;54.03;42.70;;;-2.20;1.40;;;-1.12;100.00;95532.77;634777;221;31874;-74
2021/03/08 06:19:05;;;;;;;47.70;31.80;;;-2.10;1.40;;;-1.11;100.00;95539.61;642244;221;23480;-78
2021/03/08 06:21:35;;;;;;;41.00;29.50;;;-2.00;1.40;;;-1.04;100.00;95547.75;640838;220;24498;-76
2021/03/08 06:24:06;;;;;;;47.97;37.38;;;-1.90;1.40;;;-0.83;100.00;95545.45;634071;220;31763;-76
2021/03/08 06:26:35;;;;;;;40.07;30.67;;;-1.80;1.40;;;-0.83;100.00;95554.61;640621;221;23520;-76
2021/03/08 06:29:04;;;;;;;41.63;34.67;;;-1.80;1.40;;;-0.74;100.00;95558.56;636487;221;32293;-76
2021/03/08 06:31:34;;;;;;;36.80;32.70;;;-1.70;1.40;;;-0.65;100.00;95565.58;636573;220;42966;-76
2021/03/08 06:35:53;;;;;;;33.90;29.52;;;-1.80;1.40;;;-0.79;100.00;95571.04;647806;212;33438;-73
2021/03/08 06:38:22;;;;;;;30.20;25.03;;;-1.80;1.40;;;-0.80;100.00;95567.88;641784;221;23490;-73
2021/03/08 06:40:51;;;;;;;31.12;26.87;;;-1.80;1.40;;;-0.81;100.00;95574.06;635215;220;32010;-73
2021/03/08 06:43:20;;;;;;;28.70;25.60;;;-1.70;1.40;;;-0.83;100.00;95571.98;636599;221;31726;-72
2021/03/08 06:45:49;;;;;;;27.10;23.53;;;-1.70;1.40;;;-0.81;100.00;95572.69;650943;218;23435;-73
2021/03/08 06:48:19;;;;;;;29.20;21.90;;;-1.70;1.40;;;-0.72;100.00;95578.62;671049;211;24444;-73
2021/03/08 06:53:30;;;;;;;28.70;25.40;;;-1.70;1.40;;;-0.62;100.00;95582.53;641925;215;31593;-76
2021/03/08 06:56:14;;;;;;;25.00;20.70;;;-1.60;1.40;;;-0.76;100.00;95587.22;638149;220;23478;-75
2021/03/08 06:58:43;;;;;;;23.30;19.77;;;-1.60;1.40;;;-0.63;100.00;95587.83;639391;220;24513;-75
2021/03/08 07:01:28;;;;;;;25.92;23.20;;;-1.50;1.40;;;-0.48;100.00;95590.27;633594;220;31906;-75
2021/03/08 07:03:56;;;;;;;24.10;19.90;;;-1.50;1.40;;;-0.26;100.00;95595.84;637943;221;23505;-75
2021/03/08 07:06:25;;;;;;;26.20;23.48;;;-1.40;1.40;;;-0.28;100.00;95601.41;630664;221;32042;-75
2021/03/08 07:09:03;;;;;;;22.17;18.83;;;-1.40;1.40;;;-0.20;100.00;95598.33;643059;221;23479;-75
2021/03/08 07:11:32;;;;;;;21.67;19.40;;;-1.30;1.40;;;-0.12;100.00;95599.27;637577;221;24544;-74
2021/03/08 07:14:01;;;;;;;23.20;19.37;;;-1.20;1.40;;;0.13;100.00;95601.47;638521;221;24518;-74
2021/03/08 07:16:35;;;;;;;26.25;22.10;;;-1.10;1.40;;;0.07;100.00;95605.14;632735;221;32452;-74
2021/03/08 07:19:04;;;;;;;26.02;23.23;;;-0.90;1.40;;;0.14;100.00;95604.70;634615;221;32309;-74
2021/03/08 07:21:34;;;;;;;25.55;22.87;;;-0.80;1.40;;;0.30;100.00;95605.38;632477;220;31791;-74
2021/03/08 07:24:16;;;;;;;21.93;19.30;;;-0.70;1.40;;;0.49;100.00;95610.20;639207;220;23457;-74
2021/03/08 07:27:00;;;;;;;22.60;18.23;;;-0.60;1.40;;;0.78;100.00;95605.20;622655;222;24587;-74
2021/03/08 07:29:29;;;;;;;19.83;17.17;;;-0.50;1.40;;;0.89;100.00;95606.61;639608;221;24505;-74
2021/03/08 07:31:58;;;;;;;23.00;18.10;;;-0.40;1.40;;;0.95;100.00;95605.89;627676;225;24664;-74
2021/03/08 07:35:51;;;;;;;21.80;19.50;;;-0.40;1.40;;;0.92;100.00;95606.30;646249;216;32521;-72
2021/03/08 07:38:32;;;;;;;21.50;18.97;;;-0.40;1.40;;;1.00;100.00;95611.16;642028;221;23472;-72
2021/03/08 07:41:15;;;;;;;20.43;17.80;;;-0.40;1.40;;;1.00;100.00;95615.85;640234;221;29130;-74
2021/03/08 07:43:46;;;;;;;18.77;16.87;;;-0.40;1.40;;;1.04;100.00;95613.41;641688;221;24558;-73
2021/03/08 07:46:31;;;;;;;19.80;17.50;;;-0.50;1.40;;;1.13;100.00;95616.11;640569;220;24572;-74
2021/03/08 07:49:00;;;;;;;18.37;16.33;;;-0.40;1.40;;;1.16;100.00;95617.55;641910;221;24515;-74
2021/03/08 07:51:29;;;;;;;21.80;19.40;;;-0.30;1.40;;;0.90;100.00;95618.33;642156;221;24509;-74
2021/03/08 07:53:59;;;;;;;19.63;15.67;;;-0.40;1.40;;;0.91;99.42;95619.14;640292;221;24515;-73
2021/03/08 07:56:28;;;;;;;19.00;16.83;;;-0.40;1.40;;;1.08;100.00;95616.32;640302;221;26852;-74
2021/03/08 07:58:58;;;;;;;17.67;15.97;;;-0.20;1.40;;;1.15;100.00;95620.09;640458;221;24630;-73
2021/03/08 08:01:27;;;;;;;19.60;16.10;;;0.00;1.40;;;1.47;100.00;95619.36;641360;221;24511;-74
2021/03/08 08:03:56;;;;;;;22.48;20.08;;;0.30;1.40;;;1.59;98.63;95627.59;635839;220;32043;-74
2021/03/08 08:06:25;;;;;;;21.40;19.00;;;0.40;1.40;;;1.60;97.73;95622.48;640901;221;23505;-74
2021/03/08 08:08:54;;;;;;;24.57;18.60;;;0.40;1.40;;;1.60;96.99;95629.37;640181;221;24531;-74
2021/03/08 08:11:26;;;;;;;22.45;20.05;;;0.40;1.40;;;1.61;97.95;95629.02;636721;220;31839;-75
2021/03/08 08:13:58;;;;;;;20.23;18.10;;;0.50;1.40;;;1.37;94.94;95629.67;641324;221;23454;-74
2021/03/08 08:16:29;;;;;;;20.43;18.23;;;0.50;1.40;;;1.19;95.13;95625.19;667917;211;28742;-74
2021/03/08 08:19:03;;;;;;;17.47;15.47;;;0.60;1.40;;;1.17;94.64;95626.49;670691;211;24422;-74
2021/03/08 08:21:35;;;;;;;17.43;15.57;;;0.60;1.40;;;1.39;95.95;95631.95;669123;211;25643;-74
2021/03/08 08:24:06;;;;;;;16.80;15.30;;;0.80;1.40;;;1.30;94.94;95634.11;669406;211;24433;-73
2021/03/08 08:26:35;;;;;;;18.77;16.77;;;0.90;1.40;;;1.56;93.68;95632.79;658050;211;24472;-74
2021/03/08 08:29:05;;;;;;;15.90;14.20;;;1.10;1.40;;;1.98;94.67;95630.80;654784;216;24481;-74
2021/03/08 08:31:50;;;;;;;19.63;17.57;;;1.40;1.40;;;2.33;94.92;95631.64;641709;221;24507;-74
2021/03/08 08:35:52;;;;;;;21.40;19.20;;;1.80;1.40;;;2.79;93.72;95633.72;620717;222;32541;-74
2021/03/08 08:38:22;;;;;;;19.13;17.23;;;1.90;1.40;;;3.17;92.64;95629.07;639100;220;23492;-74
2021/03/08 08:40:51;;;;;;;20.50;18.33;;;2.10;1.40;;;3.62;90.48;95632.20;642910;220;24506;-74
2021/03/08 08:43:20;;;;;;;19.73;17.67;;;2.70;1.40;;;4.12;89.16;95638.91;638423;220;26610;-75
2021/03/08 08:45:50;;;;;;;17.90;16.20;;;3.10;1.40;;;3.72;84.56;95638.30;641058;221;31049;-75
2021/03/08 08:48:19;;;;;;;17.20;15.50;;;2.60;1.40;;;3.74;86.90;95637.25;641930;221;24538;-75
2021/03/08 08:50:49;;;;;;;21.07;15.50;;;2.60;1.40;;;4.12;85.03;95638.63;642257;221;24543;-74
2021/03/08 08:53:41;;;;;;;17.33;15.53;;;2.90;1.40;;;4.28;83.51;95636.66;640551;221;28887;-74
2021/03/08 08:56:09;;;;;;;17.40;15.20;;;2.80;1.40;;;4.48;83.21;95641.89;642462;221;24744;-75
2021/03/08 08:58:42;;;;;;;15.90;14.23;;;3.00;1.40;;;4.45;81.05;95638.25;641043;221;24521;-75
2021/03/08 09:01:28;;;;;;;18.20;16.23;;;3.10;1.40;;;4.27;79.65;95631.27;641367;220;26687;-76
2021/03/08 09:04:05;;;;;;;16.70;14.67;;;3.20;1.40;;;4.41;78.24;95635.22;639599;221;24509;-74
2021/03/08 09:06:44;;;;;;;17.27;15.48;;;3.70;1.40;;;5.03;76.53;95632.40;618306;228;32118;-75
2021/03/08 09:09:23;;;;;;;15.77;14.17;;;3.80;1.40;;;5.36;76.39;95625.33;628531;225;23496;-75
2021/03/08 09:11:55;;;;;;;15.97;14.47;;;3.90;1.40;;;5.69;71.12;95625.63;616902;230;24578;-75
2021/03/08 09:14:46;;;;;;;17.23;14.93;;;5.10;1.40;;;7.66;70.44;95626.86;626061;225;24581;-75
2021/03/08 09:17:29;;;;;;;15.43;14.13;;;7.90;1.40;;;10.52;57.86;95617.69;623314;228;24570;-75
2021/03/08 09:20:28;;;;;;;15.17;13.90;;;10.40;1.40;;;11.50;56.86;95617.42;613487;230;30951;-75
2021/03/08 09:22:59;;;;;;;14.33;13.13;;;10.20;1.40;;;11.94;63.30;95613.08;615625;230;24637;-75
2021/03/08 09:25:30;;;;;;;13.80;12.70;;;10.00;1.40;;;12.38;49.19;95623.28;610969;230;24846;-76
2021/03/08 09:28:09;;;;;;;14.43;13.33;;;10.20;1.40;;;13.78;50.06;95622.00;616235;230;25170;-76
2021/03/08 09:30:39;;;;;;;13.57;12.48;;;11.10;1.40;;;13.77;42.70;95624.38;610203;230;32122;-76
2021/03/08 09:35:51;;;;;;;13.40;12.20;;;10.90;1.40;;;15.95;46.47;95619.84;647657;216;31644;-75
2021/03/08 09:38:21;;;;;;;13.10;12.10;;;12.40;1.40;;;17.61;46.60;95622.36;641434;220;22941;-75
2021/03/08 09:40:51;;;;;;;13.60;12.60;;;13.20;1.40;;;17.34;45.26;95622.98;641473;220;24764;-75
2021/03/08 09:43:27;;;;;;;13.27;12.23;;;12.50;1.40;;;17.07;37.80;95620.67;641542;220;23514;-75
2021/03/08 09:46:11;;;;;;;13.13;12.10;;;11.20;1.40;;;13.87;40.98;95627.66;639206;221;23729;-76
2021/03/08 09:48:52;;;;;;;12.18;11.18;;;9.70;1.40;;;10.99;52.00;95626.41;645754;212;31604;-76
2021/03/08 09:51:21;;;;;;;14.00;12.90;;;8.50;1.40;;;11.56;44.73;95624.81;641521;221;22491;-76
2021/03/08 09:53:52;;;;;;;14.03;12.87;;;10.20;1.40;;;12.68;47.36;95627.92;640920;221;23545;-76
2021/03/08 09:56:21;;;;;;;13.77;12.63;;;11.00;1.40;;;15.70;44.70;95621.52;641494;221;24386;-76
2021/03/08 09:58:58;;;;;;;13.40;12.37;;;11.10;1.40;;;16.07;44.85;95618.11;640520;220;24578;-76
2021/03/08 10:01:27;;;;;;;12.67;11.70;;;11.50;1.40;;;16.02;42.85;95619.08;634065;220;31815;-76
2021/03/08 10:03:56;;;;;;;13.03;11.83;;;9.90;1.40;;;15.89;44.68;95623.53;642059;221;22465;-76
2021/03/08 10:06:26;;;;;;;13.77;12.40;;;10.40;1.40;;;15.07;41.80;95620.73;639793;221;24212;-76
2021/03/08 10:08:56;;;;;;;13.60;12.30;;;11.70;1.40;;;14.77;41.53;95623.88;639146;220;24637;-76
2021/03/08 10:14:00;;;;;;;12.43;11.43;;;13.20;1.40;;;19.97;35.24;95620.05;619361;222;31996;-75
2021/03/08 10:16:30;;;;;;;12.40;11.30;;;14.50;1.40;;;19.47;33.06;95617.36;616896;230;22562;-76
2021/03/08 10:19:07;;;;;;;12.43;11.43;;;14.00;1.40;;;16.66;39.09;95618.16;611029;229;32226;-75
2021/03/08 10:21:43;;;;;;;12.57;11.57;;;13.10;1.40;;;19.42;33.45;95621.61;616557;230;22542;-76
2021/03/08 10:24:12;;;;;;;12.80;11.50;;;14.50;1.40;;;19.01;42.80;95619.94;615976;230;23660;-75
2021/03/08 10:26:44;;;;;;;12.03;11.00;;;14.00;1.40;;;20.71;37.29;95619.94;605756;229;25756;-75
2021/03/08 10:29:13;;;;;;;12.97;11.97;;;14.80;1.40;;;21.33;33.52;95616.49;604039;233;26339;-75
2021/03/08 10:31:42;;;;;;;13.13;12.03;;;14.80;1.40;;;21.54;36.09;95616.48;603109;234;25749;-75
2021/03/08 10:35:54;;;;;;;11.17;10.37;;;17.00;1.40;;;21.47;32.02;95609.22;647487;212;31628;-75
2021/03/08 10:38:37;;;;;;;11.20;10.30;;;15.60;1.40;;;19.23;35.41;95617.61;642144;221;23540;-76
2021/03/08 10:41:06;;;;;;;10.47;9.67;;;13.80;1.40;;;21.59;31.32;95612.45;638788;221;24540;-76
2021/03/08 10:43:35;;;;;;;12.87;11.87;;;15.10;1.40;;;21.62;31.14;95612.59;641010;221;30346;-75
2021/03/08 10:46:04;;;;;;;11.90;10.47;;;15.80;1.40;;;22.08;30.16;95613.70;639391;221;23577;-75
2021/03/08 10:48:34;;;;;;;11.15;10.25;;;15.20;1.40;;;21.17;31.70;95612.58;634038;221;32102;-75
2021/03/08 10:51:03;;;;;;;11.37;10.47;;;15.20;1.40;;;21.37;29.37;95607.89;641734;221;22678;-75
2021/03/08 10:53:32;;;;;;;10.53;9.83;;;15.20;1.40;;;22.63;29.32;95616.17;640860;221;24577;-75
2021/03/08 10:56:01;;;;;;;11.60;10.70;;;16.20;1.40;;;23.16;27.02;95620.23;647644;217;31744;-75
2021/03/08 10:58:34;;;;;;;12.60;11.70;;;16.90;1.40;;;20.74;29.64;95611.99;667834;211;22435;-75
2021/03/08 11:01:08;;;;;;;10.30;9.60;;;15.50;1.40;;;19.15;34.95;95614.80;669706;211;23433;-75
2021/03/08 11:03:36;;;;;;;10.50;9.70;;;14.30;1.40;;;24.87;27.83;95606.36;647926;216;42185;-76
2021/03/08 11:06:06;;;;;;;11.37;10.47;;;16.90;1.40;;;22.82;28.94;95613.04;655047;216;23502;-75
2021/03/08 11:08:38;;;;;;;10.23;9.57;;;16.50;1.40;;;25.38;26.45;95604.40;639997;220;23559;-75
2021/03/08 11:11:20;;;;;;;10.53;9.83;;;17.60;1.40;;;25.00;24.33;95605.33;668406;211;23443;-75
2021/03/08 11:13:50;;;;;;;11.33;10.50;;;18.20;1.40;;;18.93;27.40;95610.41;653790;216;23513;-75
2021/03/08 11:16:18;;;;;;;12.10;11.20;;;15.20;1.40;;;22.57;28.98;95602.33;636193;220;32066;-75
2021/03/08 11:18:47;;;;;;;11.67;10.87;;;15.40;1.40;;;23.64;24.05;95601.23;667414;211;22433;-75